Terminal Aerodrome Forecast
Issued by NWS Cleveland, OH

Home | Current Version | Previous Version | Graphics & Text | Print | Product List | Glossary On
Versions: 1 2 3 4 5 6 7 8 9 10 11 12 13 14 15 16 17 18 19 20
000
FTUS41 KCLE 151958 AAA
TAFMFD
TAF AMD
KMFD 151958Z 1520/1618 23012G20KT 5SM -SN BKN025 OVC035
      TEMPO 1520/1521 2SM -SHSN OVC015
     FM152200 25013KT P6SM SCT015 OVC030
     FM160600 25012KT 4SM -SHSN BKN015 OVC025
     FM161000 25012KT P6SM OVC025=

USA.gov is the U.S. government's official web portal to all federal, state and local government web resources and services.